sensor_id;sensor_type;location;lat;lon;timestamp;pressure;altitude;pressure_sealevel;temperature;humidity
48035;BME280;33812;46.480;6.834;2022-09-09T00:00:19;93560.09;;;24.06;45.78
48035;BME280;33812;46.480;6.834;2022-09-09T00:04:26;93562.88;;;24.06;45.64
48035;BME280;33812;46.480;6.834;2022-09-09T00:08:38;93570.41;;;24.06;44.82
48035;BME280;33812;46.480;6.834;2022-09-09T00:12:48;93565.63;;;24.06;44.95
48035;BME280;33812;46.480;6.834;2022-09-09T00:17:04;93574.41;;;24.05;44.80
48035;BME280;33812;46.480;6.834;2022-09-09T00:21:13;93575.81;;;24.00;43.96
48035;BME280;33812;46.480;6.834;2022-09-09T00:25:31;93585.06;;;24.06;44.74
48035;BME280;33812;46.480;6.834;2022-09-09T00:29:44;93587.53;;;24.04;44.47
48035;BME280;33812;46.480;6.834;2022-09-09T00:33:49;93604.94;;;24.05;44.01
48035;BME280;33812;46.480;6.834;2022-09-09T00:37:56;93602.63;;;24.03;43.40
48035;BME280;33812;46.480;6.834;2022-09-09T00:42:10;93596.31;;;24.02;44.15
48035;BME280;33812;46.480;6.834;2022-09-09T00:50:47;93593.09;;;24.04;44.76
48035;BME280;33812;46.480;6.834;2022-09-09T00:55:04;93589.53;;;24.03;44.62
48035;BME280;33812;46.480;6.834;2022-09-09T00:59:15;93593.09;;;24.04;44.25
48035;BME280;33812;46.480;6.834;2022-09-09T01:03:33;93591.53;;;24.03;44.42
48035;BME280;33812;46.480;6.834;2022-09-09T01:07:44;93600.63;;;24.03;44.42
48035;BME280;33812;46.480;6.834;2022-09-09T01:11:57;93587.53;;;24.04;44.90
48035;BME280;33812;46.480;6.834;2022-09-09T01:16:04;93578.91;;;24.02;44.91
48035;BME280;33812;46.480;6.834;2022-09-09T01:20:13;93585.22;;;24.02;44.77
48035;BME280;33812;46.480;6.834;2022-09-09T01:24:22;93580.44;;;24.03;44.95
48035;BME280;33812;46.480;6.834;2022-09-09T01:28:31;93579.22;;;24.04;44.68
48035;BME280;33812;46.480;6.834;2022-09-09T01:32:40;93590.00;;;24.02;44.49
48035;BME280;33812;46.480;6.834;2022-09-09T01:36:47;93596.31;;;24.02;44.43
48035;BME280;33812;46.480;6.834;2022-09-09T01:40:55;93602.63;;;24.03;45.86
48035;BME280;33812;46.480;6.834;2022-09-09T01:45:02;93610.50;;;24.05;48.00
48035;BME280;33812;46.480;6.834;2022-09-09T01:49:05;93616.81;;;24.05;48.01
48035;BME280;33812;46.480;6.834;2022-09-09T01:53:18;93620.84;;;24.04;47.88
48035;BME280;33812;46.480;6.834;2022-09-09T01:57:24;93609.75;;;24.04;48.07
48035;BME280;33812;46.480;6.834;2022-09-09T02:01:39;93608.97;;;24.03;48.00
48035;BME280;33812;46.480;6.834;2022-09-09T02:05:49;93604.19;;;24.04;47.94
48035;BME280;33812;46.480;6.834;2022-09-09T02:10:05;93601.88;;;24.02;47.65
48035;BME280;33812;46.480;6.834;2022-09-09T02:14:17;93589.53;;;24.03;47.68
48035;BME280;33812;46.480;6.834;2022-09-09T02:18:35;93583.19;;;24.03;47.59
48035;BME280;33812;46.480;6.834;2022-09-09T02:22:51;93580.44;;;24.03;47.64
48035;BME280;33812;46.480;6.834;2022-09-09T02:27:17;93563.31;;;24.05;47.67
48035;BME280;33812;46.480;6.834;2022-09-09T02:35:44;93584.44;;;24.02;47.55
48035;BME280;33812;46.480;6.834;2022-09-09T02:39:47;93582.28;;;24.06;47.82
48035;BME280;33812;46.480;6.834;2022-09-09T02:43:49;93596.00;;;24.10;47.48
48035;BME280;33812;46.480;6.834;2022-09-09T02:47:57;93578.44;;;24.13;47.13
48035;BME280;33812;46.480;6.834;2022-09-09T02:52:04;93579.66;;;24.12;46.76
48035;BME280;33812;46.480;6.834;2022-09-09T02:56:10;93581.22;;;24.13;46.82
48035;BME280;33812;46.480;6.834;2022-09-09T03:00:16;93573.34;;;24.11;46.55
48035;BME280;33812;46.480;6.834;2022-09-09T03:04:18;93576.13;;;24.11;46.54
48035;BME280;33812;46.480;6.834;2022-09-09T03:08:22;93582.44;;;24.12;46.81
48035;BME280;33812;46.480;6.834;2022-09-09T03:12:24;93578.91;;;24.11;46.69
48035;BME280;33812;46.480;6.834;2022-09-09T03:16:25;93579.34;;;24.10;46.32
48035;BME280;33812;46.480;6.834;2022-09-09T03:20:28;93576.56;;;24.10;46.69
48035;BME280;33812;46.480;6.834;2022-09-09T03:24:32;93572.56;;;24.11;46.68
48035;BME280;33812;46.480;6.834;2022-09-09T03:28:34;93569.00;;;24.10;46.43
48035;BME280;33812;46.480;6.834;2022-09-09T03:32:37;93574.56;;;24.10;46.48
48035;BME280;33812;46.480;6.834;2022-09-09T03:36:42;93585.22;;;24.12;46.35
48035;BME280;33812;46.480;6.834;2022-09-09T03:40:50;93573.34;;;24.11;46.68
48035;BME280;33812;46.480;6.834;2022-09-09T03:45:01;93573.34;;;24.11;46.63
48035;BME280;33812;46.480;6.834;2022-09-09T03:49:03;93573.34;;;24.11;46.69
48035;BME280;33812;46.480;6.834;2022-09-09T03:53:05;93582.13;;;24.10;46.42
48035;BME280;33812;46.480;6.834;2022-09-09T03:57:20;93570.25;;;24.09;45.91
48035;BME280;33812;46.480;6.834;2022-09-09T04:01:44;93566.72;;;24.09;46.46
48035;BME280;33812;46.480;6.834;2022-09-09T04:05:49;93578.59;;;24.09;46.21
48035;BME280;33812;46.480;6.834;2022-09-09T04:10:05;93575.34;;;24.11;46.69
48035;BME280;33812;46.480;6.834;2022-09-09T04:14:12;93569.00;;;24.10;46.37
48035;BME280;33812;46.480;6.834;2022-09-09T04:18:21;93573.03;;;24.09;46.38
48035;BME280;33812;46.480;6.834;2022-09-09T04:22:23;93568.41;;;24.06;46.67
48035;BME280;33812;46.480;6.834;2022-09-09T04:26:52;93563.47;;;24.10;46.76
48035;BME280;33812;46.480;6.834;2022-09-09T04:31:08;93567.63;;;24.06;46.77
48035;BME280;33812;46.480;6.834;2022-09-09T04:35:12;93558.53;;;24.05;47.12
48035;BME280;33812;46.480;6.834;2022-09-09T04:39:14;93559.63;;;24.08;46.79
48035;BME280;33812;46.480;6.834;2022-09-09T04:43:18;93559.78;;;24.04;46.99
48035;BME280;33812;46.480;6.834;2022-09-09T04:47:26;93567.63;;;24.06;47.57
48035;BME280;33812;46.480;6.834;2022-09-09T04:51:28;93568.09;;;24.04;47.86
48035;BME280;33812;46.480;6.834;2022-09-09T04:55:33;93568.72;;;23.99;47.63
48035;BME280;33812;46.480;6.834;2022-09-09T04:59:35;93556.69;;;24.02;47.23
48035;BME280;33812;46.480;6.834;2022-09-09T05:03:40;93563.91;;;23.99;47.25
48035;BME280;33812;46.480;6.834;2022-09-09T05:07:42;93568.72;;;23.99;48.03
48035;BME280;33812;46.480;6.834;2022-09-09T05:11:43;93567.16;;;23.98;47.56
48035;BME280;33812;46.480;6.834;2022-09-09T05:15:51;93559.75;;;23.95;48.16
48035;BME280;33812;46.480;6.834;2022-09-09T05:19:54;93564.69;;;24.00;47.42
48035;BME280;33812;46.480;6.834;2022-09-09T05:23:57;93565.94;;;23.99;47.60
48035;BME280;33812;46.480;6.834;2022-09-09T05:28:01;93567.94;;;23.98;46.91
48035;BME280;33812;46.480;6.834;2022-09-09T05:32:04;93573.50;;;23.98;47.92
48035;BME280;33812;46.480;6.834;2022-09-09T05:36:09;93579.03;;;23.79;46.45
48035;BME280;33812;46.480;6.834;2022-09-09T05:40:13;93587.81;;;23.87;47.23
48035;BME280;33812;46.480;6.834;2022-09-09T05:44:15;93586.75;;;23.94;46.70
48035;BME280;33812;46.480;6.834;2022-09-09T05:48:17;93583.81;;;23.88;46.92
48035;BME280;33812;46.480;6.834;2022-09-09T05:52:20;93581.34;;;23.90;46.53
48035;BME280;33812;46.480;6.834;2022-09-09T05:56:24;93588.75;;;23.94;46.58
48035;BME280;33812;46.480;6.834;2022-09-09T06:00:26;93575.50;;;23.88;46.81
48035;BME280;33812;46.480;6.834;2022-09-09T06:04:28;93582.25;;;23.87;46.94
48035;BME280;33812;46.480;6.834;2022-09-09T06:08:32;93579.94;;;23.86;46.95
48035;BME280;33812;46.480;6.834;2022-09-09T06:12:34;93574.41;;;23.86;46.75
48035;BME280;33812;46.480;6.834;2022-09-09T06:16:36;93576.56;;;23.82;47.09
48035;BME280;33812;46.480;6.834;2022-09-09T06:20:38;93583.19;;;23.84;46.69
48035;BME280;33812;46.480;6.834;2022-09-09T06:24:41;93580.56;;;23.81;47.29
48035;BME280;33812;46.480;6.834;2022-09-09T06:28:44;93578.72;;;23.77;47.08
48035;BME280;33812;46.480;6.834;2022-09-09T06:32:46;93587.81;;;23.78;46.94
48035;BME280;33812;46.480;6.834;2022-09-09T06:36:47;93592.44;;;23.81;47.65
48035;BME280;33812;46.480;6.834;2022-09-09T06:40:54;93593.38;;;23.78;47.53
48035;BME280;33812;46.480;6.834;2022-09-09T06:44:56;93605.38;;;23.75;47.43
48035;BME280;33812;46.480;6.834;2022-09-09T06:48:58;93605.06;;;23.73;47.58
48035;BME280;33812;46.480;6.834;2022-09-09T06:53:00;93601.97;;;23.71;47.71
48035;BME280;33812;46.480;6.834;2022-09-09T06:57:04;93599.22;;;23.71;47.59
48035;BME280;33812;46.480;6.834;2022-09-09T07:01:07;93610.63;;;23.73;47.78
48035;BME280;33812;46.480;6.834;2022-09-09T07:05:09;93610.00;;;23.69;48.06
48035;BME280;33812;46.480;6.834;2022-09-09T07:09:13;93615.84;;;23.71;47.80
48035;BME280;33812;46.480;6.834;2022-09-09T07:13:16;93610.91;;;23.65;48.24
48035;BME280;33812;46.480;6.834;2022-09-09T07:17:21;93608.13;;;23.65;48.10
48035;BME280;33812;46.480;6.834;2022-09-09T07:21:24;93616.59;;;23.62;47.99
48035;BME280;33812;46.480;6.834;2022-09-09T07:25:26;93615.03;;;23.61;47.38
48035;BME280;33812;46.480;6.834;2022-09-09T07:29:31;93623.97;;;23.55;46.59
48035;BME280;33812;46.480;6.834;2022-09-09T07:33:34;93620.44;;;23.55;46.76
48035;BME280;33812;46.480;6.834;2022-09-09T07:37:36;93626.00;;;23.55;46.21
48035;BME280;33812;46.480;6.834;2022-09-09T07:41:40;93621.34;;;23.52;44.94
48035;BME280;33812;46.480;6.834;2022-09-09T07:45:44;93615.19;;;23.48;44.88
48035;BME280;33812;46.480;6.834;2022-09-09T07:49:46;93623.81;;;23.50;45.08
48035;BME280;33812;46.480;6.834;2022-09-09T07:53:52;93607.47;;;23.52;43.75
48035;BME280;33812;46.480;6.834;2022-09-09T07:57:55;93609.44;;;23.42;42.94
48035;BME280;33812;46.480;6.834;2022-09-09T08:01:58;93624.56;;;23.41;42.42
48035;BME280;33812;46.480;6.834;2022-09-09T08:06:01;93620.03;;;23.34;42.58
48035;BME280;33812;46.480;6.834;2022-09-09T08:10:04;93619.22;;;23.24;41.68
48035;BME280;33812;46.480;6.834;2022-09-09T08:14:07;93636.63;;;23.25;41.82
48035;BME280;33812;46.480;6.834;2022-09-09T08:18:11;93638.63;;;23.24;41.22
48035;BME280;33812;46.480;6.834;2022-09-09T08:22:12;93638.47;;;23.18;41.04
48035;BME280;33812;46.480;6.834;2022-09-09T08:26:15;93645.53;;;23.19;40.70
48035;BME280;33812;46.480;6.834;2022-09-09T08:30:17;93642.44;;;23.17;40.37
48035;BME280;33812;46.480;6.834;2022-09-09T08:34:21;93640.78;;;23.20;40.58
48035;BME280;33812;46.480;6.834;2022-09-09T08:38:23;93644.00;;;23.18;40.42
48035;BME280;33812;46.480;6.834;2022-09-09T08:42:34;93651.09;;;23.19;40.34
48035;BME280;33812;46.480;6.834;2022-09-09T08:46:44;93644.00;;;23.18;41.05
48035;BME280;33812;46.480;6.834;2022-09-09T08:50:50;93648.25;;;23.10;41.31
48035;BME280;33812;46.480;6.834;2022-09-09T08:54:55;93659.91;;;22.96;40.84
48035;BME280;33812;46.480;6.834;2022-09-09T08:59:01;93654.34;;;22.96;41.55
48035;BME280;33812;46.480;6.834;2022-09-09T09:03:14;93659.94;;;23.05;41.12
48035;BME280;33812;46.480;6.834;2022-09-09T09:07:31;93662.09;;;23.01;41.55
48035;BME280;33812;46.480;6.834;2022-09-09T09:11:38;93655.09;;;22.96;41.41
48035;BME280;33812;46.480;6.834;2022-09-09T09:15:43;93665.31;;;22.99;41.36
48035;BME280;33812;46.480;6.834;2022-09-09T09:19:46;93660.06;;;23.01;41.60
48035;BME280;33812;46.480;6.834;2022-09-09T09:23:55;93638.34;;;23.00;40.78
48035;BME280;33812;46.480;6.834;2022-09-09T09:27:59;93650.66;;;22.99;40.93
48035;BME280;33812;46.480;6.834;2022-09-09T09:32:02;93645.19;;;23.08;41.95
48035;BME280;33812;46.480;6.834;2022-09-09T09:36:05;93649.81;;;23.11;41.23
48035;BME280;33812;46.480;6.834;2022-09-09T09:40:11;93657.47;;;23.07;41.56
48035;BME280;33812;46.480;6.834;2022-09-09T09:44:21;93661.03;;;23.08;41.53
48035;BME280;33812;46.480;6.834;2022-09-09T09:48:25;93660.91;;;23.11;41.58
48035;BME280;33812;46.480;6.834;2022-09-09T09:52:29;93650.72;;;23.08;41.33
48035;BME280;33812;46.480;6.834;2022-09-09T09:56:36;93652.25;;;23.09;41.38
48035;BME280;33812;46.480;6.834;2022-09-09T10:00:47;93658.47;;;23.13;41.62
48035;BME280;33812;46.480;6.834;2022-09-09T10:05:00;93653.03;;;23.10;40.38
48035;BME280;33812;46.480;6.834;2022-09-09T10:09:04;93670.34;;;22.91;39.66
48035;BME280;33812;46.480;6.834;2022-09-09T10:13:14;93678.50;;;22.95;39.66
48035;BME280;33812;46.480;6.834;2022-09-09T10:17:23;93644.66;;;23.00;39.65
48035;BME280;33812;46.480;6.834;2022-09-09T10:26:07;93654.84;;;23.03;41.15
48035;BME280;33812;46.480;6.834;2022-09-09T10:30:18;93655.63;;;23.04;41.69
48035;BME280;33812;46.480;6.834;2022-09-09T10:34:34;93647.97;;;23.08;41.71
48035;BME280;33812;46.480;6.834;2022-09-09T10:38:42;93641.78;;;23.04;42.37
48035;BME280;33812;46.480;6.834;2022-09-09T10:42:46;93647.38;;;23.13;42.24
48035;BME280;33812;46.480;6.834;2022-09-09T10:46:58;93641.97;;;23.10;42.11
48035;BME280;33812;46.480;6.834;2022-09-09T10:51:12;93646.59;;;23.13;42.22
48035;BME280;33812;46.480;6.834;2022-09-09T10:55:20;93653.66;;;23.14;41.94
48035;BME280;33812;46.480;6.834;2022-09-09T10:59:25;93641.66;;;23.17;41.62
48035;BME280;33812;46.480;6.834;2022-09-09T11:03:29;93640.78;;;23.20;41.67
48035;BME280;33812;46.480;6.834;2022-09-09T11:07:35;93648.63;;;23.22;41.61
48035;BME280;33812;46.480;6.834;2022-09-09T11:11:44;93630.44;;;23.21;41.38
48035;BME280;33812;46.480;6.834;2022-09-09T11:15:51;93641.53;;;23.21;41.77
48035;BME280;33812;46.480;6.834;2022-09-09T11:19:55;93638.75;;;23.21;41.55
48035;BME280;33812;46.480;6.834;2022-09-09T11:24:01;93631.88;;;23.25;41.59
48035;BME280;33812;46.480;6.834;2022-09-09T11:28:26;93626.00;;;23.23;41.94
48035;BME280;33812;46.480;6.834;2022-09-09T11:32:53;93635.22;;;23.20;41.41
48035;BME280;33812;46.480;6.834;2022-09-09T11:37:19;93642.44;;;23.17;40.93
48035;BME280;33812;46.480;6.834;2022-09-09T11:41:33;93636.13;;;23.17;39.84
48035;BME280;33812;46.480;6.834;2022-09-09T11:45:36;93630.16;;;23.18;40.58
48035;BME280;33812;46.480;6.834;2022-09-09T11:49:41;93633.53;;;23.23;39.83
48035;BME280;33812;46.480;6.834;2022-09-09T11:53:51;93656.16;;;23.21;38.78
48035;BME280;33812;46.480;6.834;2022-09-09T11:57:57;93648.91;;;23.14;38.32
48035;BME280;33812;46.480;6.834;2022-09-09T12:02:01;93641.03;;;23.13;38.06
48035;BME280;33812;46.480;6.834;2022-09-09T12:06:10;93653.84;;;23.19;38.48
48035;BME280;33812;46.480;6.834;2022-09-09T12:10:26;93647.06;;;23.21;38.16
48035;BME280;33812;46.480;6.834;2022-09-09T12:14:36;93650.16;;;23.23;37.24
48035;BME280;33812;46.480;6.834;2022-09-09T12:18:39;93646.19;;;23.24;36.28
48035;BME280;33812;46.480;6.834;2022-09-09T12:27:14;93643.84;;;23.22;36.22
48035;BME280;33812;46.480;6.834;2022-09-09T12:31:24;93656.22;;;23.30;36.94
48035;BME280;33812;46.480;6.834;2022-09-09T12:35:28;93670.53;;;23.29;37.13
48035;BME280;33812;46.480;6.834;2022-09-09T12:39:33;93657.91;;;23.28;36.21
48035;BME280;33812;46.480;6.834;2022-09-09T12:43:38;93655.31;;;23.34;36.99
48035;BME280;33812;46.480;6.834;2022-09-09T12:47:44;93651.44;;;23.31;36.58
48035;BME280;33812;46.480;6.834;2022-09-09T12:51:48;93653.13;;;23.28;36.02
48035;BME280;33812;46.480;6.834;2022-09-09T12:55:53;93647.91;;;23.30;35.95
48035;BME280;33812;46.480;6.834;2022-09-09T13:00:10;93641.13;;;23.31;35.35
48035;BME280;33812;46.480;6.834;2022-09-09T13:04:20;93645.59;;;23.29;35.32
48035;BME280;33812;46.480;6.834;2022-09-09T13:08:22;93633.25;;;23.30;35.60
48035;BME280;33812;46.480;6.834;2022-09-09T13:12:25;93627.25;;;23.31;36.45
48035;BME280;33812;46.480;6.834;2022-09-09T13:16:29;93630.81;;;23.32;36.40
48035;BME280;33812;46.480;6.834;2022-09-09T13:20:32;93632.81;;;23.31;35.88
48035;BME280;33812;46.480;6.834;2022-09-09T13:24:34;93635.56;;;23.31;36.00
48035;BME280;33812;46.480;6.834;2022-09-09T13:28:36;93636.34;;;23.32;36.39
48035;BME280;33812;46.480;6.834;2022-09-09T13:32:39;93631.28;;;23.30;36.44
48035;BME280;33812;46.480;6.834;2022-09-09T13:36:41;93624.47;;;23.31;35.66
48035;BME280;33812;46.480;6.834;2022-09-09T13:40:52;93629.25;;;23.31;35.95
48035;BME280;33812;46.480;6.834;2022-09-09T13:44:56;93621.25;;;23.33;36.80
48035;BME280;33812;46.480;6.834;2022-09-09T13:49:02;93612.63;;;23.31;36.29
48035;BME280;33812;46.480;6.834;2022-09-09T13:53:04;93614.16;;;23.32;35.63
48035;BME280;33812;46.480;6.834;2022-09-09T13:57:12;93605.41;;;23.34;36.22
48035;BME280;33812;46.480;6.834;2022-09-09T14:01:15;93604.75;;;23.29;35.97
48035;BME280;33812;46.480;6.834;2022-09-09T14:05:18;93597.16;;;23.21;35.67
48035;BME280;33812;46.480;6.834;2022-09-09T14:09:22;93603.31;;;23.15;35.23
48035;BME280;33812;46.480;6.834;2022-09-09T14:13:24;93607.38;;;23.24;35.76
48035;BME280;33812;46.480;6.834;2022-09-09T14:17:26;93601.81;;;23.24;36.23
48035;BME280;33812;46.480;6.834;2022-09-09T14:21:32;93602.41;;;23.18;36.79
48035;BME280;33812;46.480;6.834;2022-09-09T14:25:34;93613.94;;;23.17;36.92
48035;BME280;33812;46.480;6.834;2022-09-09T14:29:36;93616.56;;;23.11;36.57
48035;BME280;33812;46.480;6.834;2022-09-09T14:33:38;93617.75;;;23.01;36.40
48035;BME280;33812;46.480;6.834;2022-09-09T14:37:41;93626.06;;;23.10;36.78
48035;BME280;33812;46.480;6.834;2022-09-09T14:41:43;93606.88;;;23.16;37.11
48035;BME280;33812;46.480;6.834;2022-09-09T14:45:46;93610.56;;;23.13;37.60
48035;BME280;33812;46.480;6.834;2022-09-09T14:49:48;93603.91;;;23.10;37.44
48035;BME280;33812;46.480;6.834;2022-09-09T14:53:53;93611.59;;;23.06;37.44
48035;BME280;33812;46.480;6.834;2022-09-09T14:57:55;93611.94;;;23.08;36.96
48035;BME280;33812;46.480;6.834;2022-09-09T15:01:57;93608.56;;;23.13;37.07
48035;BME280;33812;46.480;6.834;2022-09-09T15:06:05;93608.59;;;23.23;37.49
48035;BME280;33812;46.480;6.834;2022-09-09T15:10:08;93609.81;;;23.22;38.09
48035;BME280;33812;46.480;6.834;2022-09-09T15:14:11;93617.81;;;23.19;38.30
48035;BME280;33812;46.480;6.834;2022-09-09T15:18:13;93609.81;;;23.22;38.88
48035;BME280;33812;46.480;6.834;2022-09-09T15:22:16;93610.16;;;23.24;39.59
48035;BME280;33812;46.480;6.834;2022-09-09T15:26:19;93613.06;;;23.20;39.61
48035;BME280;33812;46.480;6.834;2022-09-09T15:30:22;93618.47;;;23.24;39.25
48035;BME280;33812;46.480;6.834;2022-09-09T15:34:24;93606.13;;;23.25;39.36
48035;BME280;33812;46.480;6.834;2022-09-09T15:38:26;93607.66;;;23.26;39.28
48035;BME280;33812;46.480;6.834;2022-09-09T15:42:29;93609.22;;;23.27;39.91
48035;BME280;33812;46.480;6.834;2022-09-09T15:46:32;93631.72;;;23.29;40.25
48035;BME280;33812;46.480;6.834;2022-09-09T15:50:36;93634.50;;;23.29;39.77
48035;BME280;33812;46.480;6.834;2022-09-09T15:54:37;93632.94;;;23.28;39.86
48035;BME280;33812;46.480;6.834;2022-09-09T15:58:41;93627.72;;;23.30;39.61
48035;BME280;33812;46.480;6.834;2022-09-09T16:02:44;93631.28;;;23.30;39.67
48035;BME280;33812;46.480;6.834;2022-09-09T16:06:48;93628.50;;;23.30;39.55
48035;BME280;33812;46.480;6.834;2022-09-09T16:10:49;93622.16;;;23.30;39.22
48035;BME280;33812;46.480;6.834;2022-09-09T16:14:52;93628.81;;;23.33;39.75
48035;BME280;33812;46.480;6.834;2022-09-09T16:18:56;93617.72;;;23.33;39.66
48035;BME280;33812;46.480;6.834;2022-09-09T16:22:58;93621.56;;;23.35;39.85
48035;BME280;33812;46.480;6.834;2022-09-09T16:27:02;93626.66;;;23.37;40.19
48035;BME280;33812;46.480;6.834;2022-09-09T16:31:05;93625.00;;;23.39;40.85
48035;BME280;33812;46.480;6.834;2022-09-09T16:35:08;93625.75;;;23.40;40.70
48035;BME280;33812;46.480;6.834;2022-09-09T16:39:11;93639.19;;;23.41;40.19
48035;BME280;33812;46.480;6.834;2022-09-09T16:43:13;93642.72;;;23.42;40.53
48035;BME280;33812;46.480;6.834;2022-09-09T16:47:16;93649.84;;;23.43;41.35
48035;BME280;33812;46.480;6.834;2022-09-09T16:51:19;93639.50;;;23.43;40.66
48035;BME280;33812;46.480;6.834;2022-09-09T16:55:24;93638.28;;;23.45;41.55
48035;BME280;33812;46.480;6.834;2022-09-09T16:59:27;93639.81;;;23.46;41.77
48035;BME280;33812;46.480;6.834;2022-09-09T17:03:31;93642.59;;;23.46;41.58
48035;BME280;33812;46.480;6.834;2022-09-09T17:07:33;93639.50;;;23.43;41.04
48035;BME280;33812;46.480;6.834;2022-09-09T17:11:35;93653.03;;;23.41;42.38
48035;BME280;33812;46.480;6.834;2022-09-09T17:15:40;93655.69;;;23.45;42.09
48035;BME280;33812;46.480;6.834;2022-09-09T17:19:44;93668.78;;;23.45;42.16
48035;BME280;33812;46.480;6.834;2022-09-09T17:23:46;93672.31;;;23.45;41.63
48035;BME280;33812;46.480;6.834;2022-09-09T17:27:47;93675.41;;;23.47;42.80
48035;BME280;33812;46.480;6.834;2022-09-09T17:31:49;93673.41;;;23.48;42.95
48035;BME280;33812;46.480;6.834;2022-09-09T17:35:52;93676.50;;;23.50;42.39
48035;BME280;33812;46.480;6.834;2022-09-09T17:39:54;93681.28;;;23.49;43.19
48035;BME280;33812;46.480;6.834;2022-09-09T17:43:56;93677.13;;;23.45;42.62
48035;BME280;33812;46.480;6.834;2022-09-09T17:47:58;93674.63;;;23.47;43.12
48035;BME280;33812;46.480;6.834;2022-09-09T17:52:02;93680.19;;;23.47;43.39
48035;BME280;33812;46.480;6.834;2022-09-09T17:56:05;93682.94;;;23.47;43.04
48035;BME280;33812;46.480;6.834;2022-09-09T18:00:09;93682.94;;;23.47;43.50
48035;BME280;33812;46.480;6.834;2022-09-09T18:04:13;93687.28;;;23.48;44.02
48035;BME280;33812;46.480;6.834;2022-09-09T18:08:16;93689.28;;;23.47;44.06
48035;BME280;33812;46.480;6.834;2022-09-09T18:12:18;93701.47;;;23.50;44.22
48035;BME280;33812;46.480;6.834;2022-09-09T18:16:21;93711.00;;;23.49;44.27
48035;BME280;33812;46.480;6.834;2022-09-09T18:20:24;93709.47;;;23.48;44.20
48035;BME280;33812;46.480;6.834;2022-09-09T18:24:27;93714.56;;;23.49;44.70
48035;BME280;33812;46.480;6.834;2022-09-09T18:28:37;93717.34;;;23.49;44.49
48035;BME280;33812;46.480;6.834;2022-09-09T18:32:39;93731.53;;;23.51;44.41
48035;BME280;33812;46.480;6.834;2022-09-09T18:36:45;93736.28;;;23.51;44.73
48035;BME280;33812;46.480;6.834;2022-09-09T18:41:02;93737.84;;;23.52;45.00
48035;BME280;33812;46.480;6.834;2022-09-09T18:45:12;93751.28;;;23.53;45.06
48035;BME280;33812;46.480;6.834;2022-09-09T18:49:15;93795.78;;;23.50;44.44
48035;BME280;33812;46.480;6.834;2022-09-09T18:53:17;93823.53;;;23.50;44.34
48035;BME280;33812;46.480;6.834;2022-09-09T19:02:10;93843.25;;;23.52;44.22
48035;BME280;33812;46.480;6.834;2022-09-09T19:06:14;93884.84;;;23.52;44.46
48035;BME280;33812;46.480;6.834;2022-09-09T19:10:24;93884.53;;;23.50;44.46
48035;BME280;33812;46.480;6.834;2022-09-09T19:14:28;93883.31;;;23.51;44.31
48035;BME280;33812;46.480;6.834;2022-09-09T19:18:36;93884.53;;;23.50;44.53
48035;BME280;33812;46.480;6.834;2022-09-09T19:22:43;93892.09;;;23.49;44.67
48035;BME280;33812;46.480;6.834;2022-09-09T19:26:49;93897.63;;;23.49;44.73
48035;BME280;33812;46.480;6.834;2022-09-09T19:30:54;93924.00;;;23.54;44.39
48035;BME280;33812;46.480;6.834;2022-09-09T19:35:02;93917.72;;;23.53;44.18
48035;BME280;33812;46.480;6.834;2022-09-09T19:39:08;93903.25;;;23.59;43.23
48035;BME280;33812;46.480;6.834;2022-09-09T19:43:10;93921.22;;;23.54;43.28
48035;BME280;33812;46.480;6.834;2022-09-09T19:47:12;93929.22;;;23.52;43.39
48035;BME280;33812;46.480;6.834;2022-09-09T19:51:17;93947.78;;;23.55;43.16
48035;BME280;33812;46.480;6.834;2022-09-09T19:55:19;93966.84;;;23.53;43.48
48035;BME280;33812;46.480;6.834;2022-09-09T19:59:21;93965.16;;;23.55;43.59
48035;BME280;33812;46.480;6.834;2022-09-09T20:03:58;93970.59;;;23.59;43.44
48035;BME280;33812;46.480;6.834;2022-09-09T20:08:04;93968.94;;;23.62;43.55
48035;BME280;33812;46.480;6.834;2022-09-09T20:12:07;93957.97;;;23.58;43.42
48035;BME280;33812;46.480;6.834;2022-09-09T20:16:11;93951.19;;;23.59;43.70
48035;BME280;33812;46.480;6.834;2022-09-09T20:20:13;93945.31;;;23.57;43.49
48035;BME280;33812;46.480;6.834;2022-09-09T20:24:18;93937.75;;;23.58;43.60
48035;BME280;33812;46.480;6.834;2022-09-09T20:28:22;93940.41;;;23.61;43.48
48035;BME280;33812;46.480;6.834;2022-09-09T20:32:24;93923.75;;;23.61;43.63
48035;BME280;33812;46.480;6.834;2022-09-09T20:36:27;93908.94;;;23.55;43.59
48035;BME280;33812;46.480;6.834;2022-09-09T20:40:31;93898.59;;;23.55;43.40
48035;BME280;33812;46.480;6.834;2022-09-09T20:44:36;93893.81;;;23.56;43.26
48035;BME280;33812;46.480;6.834;2022-09-09T20:48:38;93886.41;;;23.53;43.56
48035;BME280;33812;46.480;6.834;2022-09-09T20:52:39;93890.25;;;23.55;43.66
48035;BME280;33812;46.480;6.834;2022-09-09T20:56:45;93881.19;;;23.55;43.49
48035;BME280;33812;46.480;6.834;2022-09-09T21:00:47;93869.31;;;23.54;43.19
48035;BME280;33812;46.480;6.834;2022-09-09T21:04:49;93859.88;;;23.52;43.61
48035;BME280;33812;46.480;6.834;2022-09-09T21:08:53;93862.22;;;23.53;43.62
48035;BME280;33812;46.480;6.834;2022-09-09T21:13:00;93862.22;;;23.53;43.78
48035;BME280;33812;46.480;6.834;2022-09-09T21:17:03;93859.88;;;23.52;43.60
48035;BME280;33812;46.480;6.834;2022-09-09T21:21:11;93874.88;;;23.54;43.78
48035;BME280;33812;46.480;6.834;2022-09-09T21:29:20;93892.28;;;23.55;43.88
48035;BME280;33812;46.480;6.834;2022-09-09T21:33:23;93898.91;;;23.58;43.83
48035;BME280;33812;46.480;6.834;2022-09-09T21:37:28;93904.91;;;23.56;43.91
48035;BME280;33812;46.480;6.834;2022-09-09T21:41:41;93908.03;;;23.58;43.85
48035;BME280;33812;46.480;6.834;2022-09-09T21:45:45;93913.56;;;23.58;44.07
48035;BME280;33812;46.480;6.834;2022-09-09T21:49:49;93924.22;;;23.60;44.10
48035;BME280;33812;46.480;6.834;2022-09-09T21:53:54;93934.22;;;23.57;43.94
48035;BME280;33812;46.480;6.834;2022-09-09T21:58:02;93931.75;;;23.59;44.18
48035;BME280;33812;46.480;6.834;2022-09-09T22:02:08;93936.56;;;23.59;44.50
48035;BME280;33812;46.480;6.834;2022-09-09T22:06:11;93936.84;;;23.61;44.45